sensor_id;sensor_type;location;lat;lon;timestamp;pressure;altitude;pressure_sealevel;temperature;humidity
55301;BME280;58302;51.446;-2.000;2022-12-26T00:01:44;99769.03;;;7.75;100.00
55301;BME280;58302;51.446;-2.000;2022-12-26T00:04:12;99761.47;;;7.77;100.00
55301;BME280;58302;51.446;-2.000;2022-12-26T00:06:38;99756.34;;;7.76;100.00
55301;BME280;58302;51.446;-2.000;2022-12-26T00:09:05;99763.88;;;7.74;100.00
55301;BME280;58302;51.446;-2.000;2022-12-26T00:11:32;99757.16;;;7.76;100.00
55301;BME280;58302;51.446;-2.000;2022-12-26T00:14:04;99760.97;;;7.80;100.00
55301;BME280;58302;51.446;-2.000;2022-12-26T00:16:31;99758.50;;;7.79;100.00
55301;BME280;58302;51.446;-2.000;2022-12-26T00:18:57;99742.25;;;7.74;100.00
55301;BME280;58302;51.446;-2.000;2022-12-26T00:21:25;99759.56;;;7.78;100.00
55301;BME280;58302;51.446;-2.000;2022-12-26T00:23:53;99759.28;;;7.74;100.00
55301;BME280;58302;51.446;-2.000;2022-12-26T00:26:21;99767.16;;;7.76;100.00
55301;BME280;58302;51.446;-2.000;2022-12-26T00:28:48;99763.66;;;7.80;100.00
55301;BME280;58302;51.446;-2.000;2022-12-26T00:31:25;99762.34;;;7.88;100.00
55301;BME280;58302;51.446;-2.000;2022-12-26T00:33:52;99761.56;;;7.98;100.00
55301;BME280;58302;51.446;-2.000;2022-12-26T00:36:24;99756.13;;;7.92;100.00
55301;BME280;58302;51.446;-2.000;2022-12-26T00:38:50;99747.75;;;7.94;100.00
55301;BME280;58302;51.446;-2.000;2022-12-26T00:41:18;99758.03;;;7.92;100.00
55301;BME280;58302;51.446;-2.000;2022-12-26T00:43:44;99761.78;;;7.86;100.00
55301;BME280;58302;51.446;-2.000;2022-12-26T00:46:10;99760.44;;;7.88;100.00
55301;BME280;58302;51.446;-2.000;2022-12-26T00:48:37;99775.56;;;7.84;100.00
55301;BME280;58302;51.446;-2.000;2022-12-26T00:51:03;99767.19;;;7.81;100.00
55301;BME280;58302;51.446;-2.000;2022-12-26T00:53:29;99777.97;;;7.76;100.00
55301;BME280;58302;51.446;-2.000;2022-12-26T00:55:55;99771.97;;;7.69;100.00
55301;BME280;58302;51.446;-2.000;2022-12-26T00:58:22;99791.97;;;7.68;100.00
55301;BME280;58302;51.446;-2.000;2022-12-26T01:00:49;99797.94;;;7.64;100.00
55301;BME280;58302;51.446;-2.000;2022-12-26T01:03:16;99790.88;;;7.63;100.00
55301;BME280;58302;51.446;-2.000;2022-12-26T01:05:46;99796.56;;;7.67;100.00
55301;BME280;58302;51.446;-2.000;2022-12-26T01:08:12;99795.81;;;7.77;100.00
55301;BME280;58302;51.446;-2.000;2022-12-26T01:10:42;99804.00;;;7.87;100.00
55301;BME280;58302;51.446;-2.000;2022-12-26T01:13:09;99811.88;;;7.99;100.00
55301;BME280;58302;51.446;-2.000;2022-12-26T01:15:35;99804.06;;;8.02;100.00
55301;BME280;58302;51.446;-2.000;2022-12-26T01:18:02;99807.31;;;8.04;100.00
55301;BME280;58302;51.446;-2.000;2022-12-26T01:20:28;99826.78;;;8.01;100.00
55301;BME280;58302;51.446;-2.000;2022-12-26T01:22:54;99819.47;;;7.97;100.00
55301;BME280;58302;51.446;-2.000;2022-12-26T01:25:21;99835.69;;;7.91;100.00
55301;BME280;58302;51.446;-2.000;2022-12-26T01:27:48;99842.09;;;7.85;100.00
55301;BME280;58302;51.446;-2.000;2022-12-26T01:30:14;99841.53;;;7.78;100.00
55301;BME280;58302;51.446;-2.000;2022-12-26T01:32:40;99853.94;;;7.74;100.00
55301;BME280;58302;51.446;-2.000;2022-12-26T01:35:06;99863.09;;;7.68;100.00
55301;BME280;58302;51.446;-2.000;2022-12-26T01:37:32;99870.91;;;7.59;100.00
55301;BME280;58302;51.446;-2.000;2022-12-26T01:39:57;99871.88;;;7.43;100.00
55301;BME280;58302;51.446;-2.000;2022-12-26T01:42:25;99873.94;;;7.31;100.00
55301;BME280;58302;51.446;-2.000;2022-12-26T01:48:03;99898.63;;;7.12;100.00
55301;BME280;58302;51.446;-2.000;2022-12-26T01:50:48;99903.41;;;7.05;100.00
55301;BME280;58302;51.446;-2.000;2022-12-26T01:53:24;99905.53;;;6.98;100.00
55301;BME280;58302;51.446;-2.000;2022-12-26T01:55:57;99903.78;;;6.87;100.00
55301;BME280;58302;51.446;-2.000;2022-12-26T01:58:30;99906.88;;;6.74;100.00
55301;BME280;58302;51.446;-2.000;2022-12-26T02:01:00;99904.50;;;6.55;100.00
55301;BME280;58302;51.446;-2.000;2022-12-26T02:03:29;99905.69;;;6.43;100.00
55301;BME280;58302;51.446;-2.000;2022-12-26T02:06:14;99901.28;;;6.37;100.00
55301;BME280;58302;51.446;-2.000;2022-12-26T02:08:41;99914.16;;;6.29;100.00
55301;BME280;58302;51.446;-2.000;2022-12-26T02:11:23;99921.59;;;6.39;100.00
55301;BME280;58302;51.446;-2.000;2022-12-26T02:13:50;99930.75;;;6.38;100.00
55301;BME280;58302;51.446;-2.000;2022-12-26T02:16:18;99924.91;;;6.46;100.00
55301;BME280;58302;51.446;-2.000;2022-12-26T02:18:44;99927.66;;;6.51;100.00
55301;BME280;58302;51.446;-2.000;2022-12-26T02:27:01;99960.31;;;6.72;100.00
55301;BME280;58302;51.446;-2.000;2022-12-26T02:32:20;99977.09;;;6.74;100.00
55301;BME280;58302;51.446;-2.000;2022-12-26T02:54:22;100036.69;;;6.67;100.00
55301;BME280;58302;51.446;-2.000;2022-12-26T02:57:12;100037.97;;;6.65;100.00
55301;BME280;58302;51.446;-2.000;2022-12-26T03:00:06;100039.56;;;6.60;100.00
55301;BME280;58302;51.446;-2.000;2022-12-26T03:02:59;100054.13;;;6.59;100.00
55301;BME280;58302;51.446;-2.000;2022-12-26T03:05:53;100047.53;;;6.50;100.00
55301;BME280;58302;51.446;-2.000;2022-12-26T03:08:45;100052.75;;;6.40;100.00
55301;BME280;58302;51.446;-2.000;2022-12-26T03:11:40;100068.81;;;6.30;100.00
55301;BME280;58302;51.446;-2.000;2022-12-26T03:14:32;100080.66;;;6.29;100.00
55301;BME280;58302;51.446;-2.000;2022-12-26T03:17:07;100092.53;;;6.28;100.00
55301;BME280;58302;51.446;-2.000;2022-12-26T03:19:47;100097.84;;;6.23;100.00
55301;BME280;58302;51.446;-2.000;2022-12-26T03:22:45;100105.59;;;6.19;100.00
55301;BME280;58302;51.446;-2.000;2022-12-26T03:28:23;100113.94;;;6.01;100.00
55301;BME280;58302;51.446;-2.000;2022-12-26T03:30:50;100114.91;;;5.95;100.00
55301;BME280;58302;51.446;-2.000;2022-12-26T03:33:29;100132.84;;;5.89;100.00
55301;BME280;58302;51.446;-2.000;2022-12-26T03:45:25;100170.59;;;5.61;100.00
55301;BME280;58302;51.446;-2.000;2022-12-26T03:54:33;100190.56;;;5.36;100.00
55301;BME280;58302;51.446;-2.000;2022-12-26T03:57:21;100207.69;;;5.30;100.00
55301;BME280;58302;51.446;-2.000;2022-12-26T04:00:11;100222.66;;;5.38;100.00
55301;BME280;58302;51.446;-2.000;2022-12-26T04:03:01;100235.78;;;5.46;100.00
55301;BME280;58302;51.446;-2.000;2022-12-26T04:05:50;100243.06;;;5.45;100.00
55301;BME280;58302;51.446;-2.000;2022-12-26T04:09:06;100245.84;;;5.50;100.00
55301;BME280;58302;51.446;-2.000;2022-12-26T04:11:52;100245.03;;;5.50;100.00
55301;BME280;58302;51.446;-2.000;2022-12-26T04:14:49;100246.81;;;5.44;100.00
55301;BME280;58302;51.446;-2.000;2022-12-26T04:23:30;100257.00;;;5.31;100.00
55301;BME280;58302;51.446;-2.000;2022-12-26T04:26:24;100247.72;;;5.26;100.00
55301;BME280;58302;51.446;-2.000;2022-12-26T04:29:11;100254.44;;;5.24;100.00
55301;BME280;58302;51.446;-2.000;2022-12-26T04:32:02;100264.25;;;5.18;100.00
55301;BME280;58302;51.446;-2.000;2022-12-26T04:38:04;100277.38;;;5.15;100.00
55301;BME280;58302;51.446;-2.000;2022-12-26T04:40:54;100281.94;;;5.14;100.00
55301;BME280;58302;51.446;-2.000;2022-12-26T04:43:40;100290.59;;;5.16;100.00
55301;BME280;58302;51.446;-2.000;2022-12-26T04:46:26;100292.59;;;5.09;100.00
55301;BME280;58302;51.446;-2.000;2022-12-26T04:48:53;100290.03;;;5.02;100.00
55301;BME280;58302;51.446;-2.000;2022-12-26T04:51:38;100310.84;;;4.95;100.00
55301;BME280;58302;51.446;-2.000;2022-12-26T04:54:05;100316.13;;;4.90;100.00
55301;BME280;58302;51.446;-2.000;2022-12-26T04:56:31;100315.06;;;4.91;100.00
55301;BME280;58302;51.446;-2.000;2022-12-26T04:58:57;100324.91;;;4.97;100.00
55301;BME280;58302;51.446;-2.000;2022-12-26T05:01:24;100338.50;;;5.02;100.00
55301;BME280;58302;51.446;-2.000;2022-12-26T05:04:12;100333.56;;;4.99;100.00
55301;BME280;58302;51.446;-2.000;2022-12-26T05:06:57;100338.94;;;4.99;100.00
55301;BME280;58302;51.446;-2.000;2022-12-26T05:09:42;100340.94;;;4.92;100.00
55301;BME280;58302;51.446;-2.000;2022-12-26T05:12:08;100339.75;;;4.88;100.00
55301;BME280;58302;51.446;-2.000;2022-12-26T05:14:34;100337.53;;;4.85;100.00
55301;BME280;58302;51.446;-2.000;2022-12-26T05:17:01;100350.72;;;4.75;100.00
55301;BME280;58302;51.446;-2.000;2022-12-26T05:19:46;100352.91;;;4.66;100.00
55301;BME280;58302;51.446;-2.000;2022-12-26T05:22:32;100364.44;;;4.55;100.00
55301;BME280;58302;51.446;-2.000;2022-12-26T05:25:24;100378.38;;;4.34;100.00
55301;BME280;58302;51.446;-2.000;2022-12-26T05:28:10;100382.00;;;4.09;100.00
55301;BME280;58302;51.446;-2.000;2022-12-26T05:30:55;100391.94;;;3.90;100.00
55301;BME280;58302;51.446;-2.000;2022-12-26T05:33:21;100399.38;;;3.70;100.00
55301;BME280;58302;51.446;-2.000;2022-12-26T05:36:07;100411.66;;;3.59;100.00
55301;BME280;58302;51.446;-2.000;2022-12-26T05:38:34;100415.13;;;3.41;100.00
55301;BME280;58302;51.446;-2.000;2022-12-26T05:40:59;100419.69;;;3.34;100.00
55301;BME280;58302;51.446;-2.000;2022-12-26T05:43:25;100437.91;;;3.32;100.00
55301;BME280;58302;51.446;-2.000;2022-12-26T05:45:51;100439.00;;;3.25;100.00
55301;BME280;58302;51.446;-2.000;2022-12-26T05:48:17;100446.66;;;3.21;100.00
55301;BME280;58302;51.446;-2.000;2022-12-26T05:50:43;100449.00;;;3.11;100.00
55301;BME280;58302;51.446;-2.000;2022-12-26T05:53:09;100452.59;;;2.98;100.00
55301;BME280;58302;51.446;-2.000;2022-12-26T05:55:35;100446.28;;;2.79;100.00
55301;BME280;58302;51.446;-2.000;2022-12-26T05:58:01;100450.47;;;2.75;100.00
55301;BME280;58302;51.446;-2.000;2022-12-26T06:00:28;100455.00;;;2.75;100.00
55301;BME280;58302;51.446;-2.000;2022-12-26T06:02:55;100459.31;;;2.69;100.00
55301;BME280;58302;51.446;-2.000;2022-12-26T06:05:21;100469.91;;;2.64;100.00
55301;BME280;58302;51.446;-2.000;2022-12-26T06:07:47;100488.25;;;2.67;100.00
55301;BME280;58302;51.446;-2.000;2022-12-26T06:10:13;100482.28;;;2.65;100.00
55301;BME280;58302;51.446;-2.000;2022-12-26T06:12:39;100488.50;;;2.59;100.00
55301;BME280;58302;51.446;-2.000;2022-12-26T06:15:05;100485.22;;;2.50;100.00
55301;BME280;58302;51.446;-2.000;2022-12-26T06:17:32;100487.28;;;2.42;100.00
55301;BME280;58302;51.446;-2.000;2022-12-26T06:19:58;100482.16;;;2.33;100.00
55301;BME280;58302;51.446;-2.000;2022-12-26T06:22:23;100487.34;;;2.28;100.00
55301;BME280;58302;51.446;-2.000;2022-12-26T06:24:49;100488.81;;;2.18;100.00
55301;BME280;58302;51.446;-2.000;2022-12-26T06:27:15;100496.88;;;2.11;100.00
55301;BME280;58302;51.446;-2.000;2022-12-26T06:29:41;100495.41;;;2.02;100.00
55301;BME280;58302;51.446;-2.000;2022-12-26T06:32:07;100508.63;;;1.97;100.00
55301;BME280;58302;51.446;-2.000;2022-12-26T06:34:33;100517.69;;;1.96;100.00
55301;BME280;58302;51.446;-2.000;2022-12-26T06:36:59;100523.28;;;1.88;100.00
55301;BME280;58302;51.446;-2.000;2022-12-26T06:39:25;100523.25;;;1.81;100.00
55301;BME280;58302;51.446;-2.000;2022-12-26T06:41:51;100524.91;;;1.75;100.00
55301;BME280;58302;51.446;-2.000;2022-12-26T06:44:17;100520.41;;;1.76;100.00
55301;BME280;58302;51.446;-2.000;2022-12-26T06:46:43;100525.75;;;1.82;100.00
55301;BME280;58302;51.446;-2.000;2022-12-26T06:49:09;100535.00;;;1.87;100.00
55301;BME280;58302;51.446;-2.000;2022-12-26T06:51:35;100535.63;;;1.75;100.00
55301;BME280;58302;51.446;-2.000;2022-12-26T06:54:01;100552.72;;;1.74;100.00
55301;BME280;58302;51.446;-2.000;2022-12-26T06:56:27;100552.34;;;1.71;100.00
55301;BME280;58302;51.446;-2.000;2022-12-26T06:58:54;100562.41;;;1.62;100.00
55301;BME280;58302;51.446;-2.000;2022-12-26T07:01:21;100568.59;;;1.56;100.00
55301;BME280;58302;51.446;-2.000;2022-12-26T07:03:48;100566.06;;;1.48;100.00
55301;BME280;58302;51.446;-2.000;2022-12-26T07:06:28;100577.22;;;1.45;100.00
55301;BME280;58302;51.446;-2.000;2022-12-26T07:08:58;100572.66;;;1.39;100.00
55301;BME280;58302;51.446;-2.000;2022-12-26T07:11:27;100586.44;;;1.29;100.00
55301;BME280;58302;51.446;-2.000;2022-12-26T07:13:54;100589.50;;;1.26;100.00
55301;BME280;58302;51.446;-2.000;2022-12-26T07:16:21;100592.56;;;1.16;100.00
55301;BME280;58302;51.446;-2.000;2022-12-26T07:18:47;100603.41;;;1.01;100.00
55301;BME280;58302;51.446;-2.000;2022-12-26T07:21:14;100609.97;;;0.99;100.00
55301;BME280;58302;51.446;-2.000;2022-12-26T07:23:40;100615.16;;;1.07;100.00
55301;BME280;58302;51.446;-2.000;2022-12-26T07:26:06;100623.88;;;1.16;100.00
55301;BME280;58302;51.446;-2.000;2022-12-26T07:28:33;100623.25;;;1.20;100.00
55301;BME280;58302;51.446;-2.000;2022-12-26T07:30:59;100626.16;;;1.25;100.00
55301;BME280;58302;51.446;-2.000;2022-12-26T07:33:28;100628.66;;;1.27;100.00
55301;BME280;58302;51.446;-2.000;2022-12-26T07:36:02;100634.81;;;1.27;100.00
55301;BME280;58302;51.446;-2.000;2022-12-26T07:38:29;100642.63;;;1.22;100.00
55301;BME280;58302;51.446;-2.000;2022-12-26T07:40:56;100650.88;;;1.27;100.00
55301;BME280;58302;51.446;-2.000;2022-12-26T07:43:22;100658.72;;;1.36;100.00
55301;BME280;58302;51.446;-2.000;2022-12-26T07:45:48;100662.88;;;1.38;100.00
55301;BME280;58302;51.446;-2.000;2022-12-26T07:48:14;100672.59;;;1.46;100.00
55301;BME280;58302;51.446;-2.000;2022-12-26T07:50:40;100688.44;;;1.47;100.00
55301;BME280;58302;51.446;-2.000;2022-12-26T07:53:06;100691.13;;;1.47;100.00
55301;BME280;58302;51.446;-2.000;2022-12-26T07:55:32;100698.34;;;1.53;100.00
55301;BME280;58302;51.446;-2.000;2022-12-26T07:57:58;100692.59;;;1.50;100.00
55301;BME280;58302;51.446;-2.000;2022-12-26T08:00:24;100697.94;;;1.50;100.00
55301;BME280;58302;51.446;-2.000;2022-12-26T08:02:50;100699.59;;;1.51;100.00
55301;BME280;58302;51.446;-2.000;2022-12-26T08:05:18;100705.41;;;1.61;100.00
55301;BME280;58302;51.446;-2.000;2022-12-26T08:07:46;100705.66;;;1.79;100.00
55301;BME280;58302;51.446;-2.000;2022-12-26T08:10:14;100707.38;;;1.94;100.00
55301;BME280;58302;51.446;-2.000;2022-12-26T08:12:40;100716.25;;;2.01;100.00
55301;BME280;58302;51.446;-2.000;2022-12-26T08:15:06;100717.50;;;2.11;100.00
55301;BME280;58302;51.446;-2.000;2022-12-26T08:17:32;100721.66;;;2.21;100.00
55301;BME280;58302;51.446;-2.000;2022-12-26T08:19:58;100728.44;;;2.23;100.00
55301;BME280;58302;51.446;-2.000;2022-12-26T08:22:24;100744.31;;;2.25;100.00
55301;BME280;58302;51.446;-2.000;2022-12-26T08:24:51;100744.16;;;2.26;100.00
55301;BME280;58302;51.446;-2.000;2022-12-26T08:27:17;100740.81;;;2.24;100.00
55301;BME280;58302;51.446;-2.000;2022-12-26T08:29:43;100750.53;;;2.25;100.00
55301;BME280;58302;51.446;-2.000;2022-12-26T08:32:09;100765.81;;;2.31;100.00
55301;BME280;58302;51.446;-2.000;2022-12-26T08:34:35;100769.94;;;2.34;100.00
55301;BME280;58302;51.446;-2.000;2022-12-26T08:37:01;100783.34;;;2.27;100.00
55301;BME280;58302;51.446;-2.000;2022-12-26T08:39:27;100781.88;;;2.25;100.00
55301;BME280;58302;51.446;-2.000;2022-12-26T08:41:53;100781.28;;;2.29;100.00
55301;BME280;58302;51.446;-2.000;2022-12-26T08:44:19;100787.91;;;2.47;100.00
55301;BME280;58302;51.446;-2.000;2022-12-26T08:46:45;100792.69;;;2.64;100.00
55301;BME280;58302;51.446;-2.000;2022-12-26T08:49:11;100797.03;;;2.92;100.00
55301;BME280;58302;51.446;-2.000;2022-12-26T08:51:37;100796.84;;;3.13;100.00
55301;BME280;58302;51.446;-2.000;2022-12-26T08:54:03;100788.53;;;3.35;100.00
55301;BME280;58302;51.446;-2.000;2022-12-26T08:56:30;100790.97;;;3.50;100.00
55301;BME280;58302;51.446;-2.000;2022-12-26T08:58:56;100794.25;;;3.65;100.00
55301;BME280;58302;51.446;-2.000;2022-12-26T09:01:25;100806.63;;;3.79;100.00
55301;BME280;58302;51.446;-2.000;2022-12-26T09:03:52;100799.34;;;3.86;100.00
55301;BME280;58302;51.446;-2.000;2022-12-26T09:06:19;100808.25;;;3.87;100.00
55301;BME280;58302;51.446;-2.000;2022-12-26T09:08:45;100808.88;;;3.82;100.00
55301;BME280;58302;51.446;-2.000;2022-12-26T09:11:22;100810.31;;;3.78;100.00
55301;BME280;58302;51.446;-2.000;2022-12-26T09:13:51;100825.03;;;3.76;100.00
55301;BME280;58302;51.446;-2.000;2022-12-26T09:16:23;100825.25;;;3.74;100.00
55301;BME280;58302;51.446;-2.000;2022-12-26T09:18:54;100833.28;;;3.81;100.00
55301;BME280;58302;51.446;-2.000;2022-12-26T09:21:20;100842.13;;;4.01;100.00
55301;BME280;58302;51.446;-2.000;2022-12-26T09:23:46;100849.28;;;4.20;100.00
55301;BME280;58302;51.446;-2.000;2022-12-26T09:26:17;100846.69;;;4.45;100.00
55301;BME280;58302;51.446;-2.000;2022-12-26T09:28:44;100851.97;;;4.59;100.00
55301;BME280;58302;51.446;-2.000;2022-12-26T09:31:16;100863.41;;;4.86;100.00
55301;BME280;58302;51.446;-2.000;2022-12-26T09:33:43;100863.44;;;5.11;100.00
55301;BME280;58302;51.446;-2.000;2022-12-26T09:36:15;100860.66;;;5.24;100.00
55301;BME280;58302;51.446;-2.000;2022-12-26T09:38:42;100854.88;;;5.45;100.00
55301;BME280;58302;51.446;-2.000;2022-12-26T09:41:29;100865.31;;;5.78;100.00
55301;BME280;58302;51.446;-2.000;2022-12-26T09:49:18;100860.00;;;6.45;100.00
55301;BME280;58302;51.446;-2.000;2022-12-26T09:51:50;100855.78;;;6.79;100.00
55301;BME280;58302;51.446;-2.000;2022-12-26T09:54:31;100854.44;;;7.12;100.00
55301;BME280;58302;51.446;-2.000;2022-12-26T09:56:58;100857.66;;;7.21;100.00
55301;BME280;58302;51.446;-2.000;2022-12-26T09:59:25;100853.06;;;7.33;100.00
55301;BME280;58302;51.446;-2.000;2022-12-26T10:01:52;100859.31;;;7.69;100.00
55301;BME280;58302;51.446;-2.000;2022-12-26T10:04:22;100858.38;;;7.75;100.00
55301;BME280;58302;51.446;-2.000;2022-12-26T10:07:00;100856.47;;;7.87;100.00
55301;BME280;58302;51.446;-2.000;2022-12-26T10:12:33;100860.31;;;8.14;100.00
55301;BME280;58302;51.446;-2.000;2022-12-26T10:15:56;100867.78;;;8.48;100.00
55301;BME280;58302;51.446;-2.000;2022-12-26T10:18:57;100870.59;;;8.53;100.00
55301;BME280;58302;51.446;-2.000;2022-12-26T10:21:36;100860.13;;;8.73;100.00
55301;BME280;58302;51.446;-2.000;2022-12-26T10:24:15;100865.28;;;9.03;100.00
55301;BME280;58302;51.446;-2.000;2022-12-26T10:26:47;100865.84;;;9.39;100.00
55301;BME280;58302;51.446;-2.000;2022-12-26T10:29:27;100862.47;;;9.65;100.00
55301;BME280;58302;51.446;-2.000;2022-12-26T10:34:40;100875.25;;;9.31;100.00
55301;BME280;58302;51.446;-2.000;2022-12-26T10:37:25;100877.19;;;9.02;100.00
55301;BME280;58302;51.446;-2.000;2022-12-26T10:40:01;100885.50;;;8.95;100.00
55301;BME280;58302;51.446;-2.000;2022-12-26T10:42:36;100875.56;;;8.73;100.00
55301;BME280;58302;51.446;-2.000;2022-12-26T10:45:13;100877.31;;;8.50;100.00
55301;BME280;58302;51.446;-2.000;2022-12-26T10:47:40;100884.59;;;8.50;100.00
55301;BME280;58302;51.446;-2.000;2022-12-26T10:50:17;100885.47;;;8.27;100.00
55301;BME280;58302;51.446;-2.000;2022-12-26T10:52:43;100891.06;;;7.85;100.00
55301;BME280;58302;51.446;-2.000;2022-12-26T10:55:15;100900.56;;;7.29;100.00
55301;BME280;58302;51.446;-2.000;2022-12-26T10:57:43;100918.91;;;6.97;100.00
55301;BME280;58302;51.446;-2.000;2022-12-26T11:02:40;100909.38;;;6.64;100.00
55301;BME280;58302;51.446;-2.000;2022-12-26T11:05:09;100920.31;;;6.39;100.00
55301;BME280;58302;51.446;-2.000;2022-12-26T11:07:56;100916.94;;;6.07;100.00
55301;BME280;58302;51.446;-2.000;2022-12-26T11:10:30;100919.44;;;5.84;100.00
55301;BME280;58302;51.446;-2.000;2022-12-26T11:13:05;100931.13;;;5.71;100.00
55301;BME280;58302;51.446;-2.000;2022-12-26T11:15:47;100926.47;;;5.60;100.00
55301;BME280;58302;51.446;-2.000;2022-12-26T11:18:35;100929.06;;;5.73;100.00
55301;BME280;58302;51.446;-2.000;2022-12-26T11:23:51;100935.16;;;6.12;100.00
55301;BME280;58302;51.446;-2.000;2022-12-26T11:26:23;100935.97;;;5.94;100.00
55301;BME280;58302;51.446;-2.000;2022-12-26T11:29:10;100935.06;;;5.75;100.00
55301;BME280;58302;51.446;-2.000;2022-12-26T11:31:38;100936.72;;;5.51;100.00
55301;BME280;58302;51.446;-2.000;2022-12-26T11:34:20;100941.66;;;5.29;100.00
55301;BME280;58302;51.446;-2.000;2022-12-26T11:36:48;100944.69;;;5.08;100.00
55301;BME280;58302;51.446;-2.000;2022-12-26T11:39:35;100961.31;;;4.98;100.00
55301;BME280;58302;51.446;-2.000;2022-12-26T11:42:09;100961.22;;;5.18;100.00
55301;BME280;58302;51.446;-2.000;2022-12-26T11:44:38;100964.56;;;5.70;100.00
55301;BME280;58302;51.446;-2.000;2022-12-26T11:47:19;100956.31;;;6.33;100.00
55301;BME280;58302;51.446;-2.000;2022-12-26T12:00:32;100963.59;;;6.81;100.00
55301;BME280;58302;51.446;-2.000;2022-12-26T12:02:59;100960.47;;;6.84;100.00
55301;BME280;58302;51.446;-2.000;2022-12-26T12:05:35;100954.38;;;7.30;100.00
55301;BME280;58302;51.446;-2.000;2022-12-26T12:11:20;100946.03;;;7.20;100.00
55301;BME280;58302;51.446;-2.000;2022-12-26T12:17:23;100951.75;;;6.82;100.00
55301;BME280;58302;51.446;-2.000;2022-12-26T12:30:53;100949.41;;;7.16;100.00
55301;BME280;58302;51.446;-2.000;2022-12-26T12:39:46;100937.75;;;8.39;100.00
55301;BME280;58302;51.446;-2.000;2022-12-26T12:42:39;100935.97;;;8.44;100.00
55301;BME280;58302;51.446;-2.000;2022-12-26T12:45:23;100932.19;;;8.57;100.00
55301;BME280;58302;51.446;-2.000;2022-12-26T12:50:31;100950.72;;;8.77;100.00
55301;BME280;58302;51.446;-2.000;2022-12-26T12:56:00;100948.66;;;8.96;100.00
55301;BME280;58302;51.446;-2.000;2022-12-26T12:58:48;100948.88;;;9.23;100.00
55301;BME280;58302;51.446;-2.000;2022-12-26T13:01:38;100947.19;;;9.50;100.00
55301;BME280;58302;51.446;-2.000;2022-12-26T13:04:22;100951.78;;;9.50;100.00
55301;BME280;58302;51.446;-2.000;2022-12-26T13:06:53;100963.75;;;8.92;100.00
55301;BME280;58302;51.446;-2.000;2022-12-26T13:11:57;100944.97;;;7.98;100.00
55301;BME280;58302;51.446;-2.000;2022-12-26T13:14:54;100948.00;;;8.02;100.00
55301;BME280;58302;51.446;-2.000;2022-12-26T13:17:30;100952.59;;;8.25;100.00
55301;BME280;58302;51.446;-2.000;2022-12-26T13:20:04;100943.31;;;8.09;100.00
55301;BME280;58302;51.446;-2.000;2022-12-26T13:22:39;100936.94;;;8.03;100.00
55301;BME280;58302;51.446;-2.000;2022-12-26T13:25:27;100939.88;;;8.25;100.00
55301;BME280;58302;51.446;-2.000;2022-12-26T13:27:59;100937.88;;;8.21;100.00
55301;BME280;58302;51.446;-2.000;2022-12-26T13:30:35;100940.47;;;7.69;100.00
55301;BME280;58302;51.446;-2.000;2022-12-26T13:33:03;100949.56;;;7.21;100.00
55301;BME280;58302;51.446;-2.000;2022-12-26T13:35:53;100945.69;;;6.68;100.00
55301;BME280;58302;51.446;-2.000;2022-12-26T13:38:21;100950.66;;;6.34;100.00
55301;BME280;58302;51.446;-2.000;2022-12-26T13:40:57;100954.47;;;6.08;100.00
55301;BME280;58302;51.446;-2.000;2022-12-26T13:44:31;100964.78;;;5.93;100.00
55301;BME280;58302;51.446;-2.000;2022-12-26T13:46:58;100967.97;;;5.84;100.00
55301;BME280;58302;51.446;-2.000;2022-12-26T13:57:36;100976.69;;;5.61;100.00
55301;BME280;58302;51.446;-2.000;2022-12-26T14:00:06;100967.13;;;5.58;100.00
55301;BME280;58302;51.446;-2.000;2022-12-26T14:05:39;100963.03;;;5.55;100.00
55301;BME280;58302;51.446;-2.000;2022-12-26T14:16:11;100975.22;;;5.33;100.00
55301;BME280;58302;51.446;-2.000;2022-12-26T14:21:56;100983.50;;;4.93;100.00
55301;BME280;58302;51.446;-2.000;2022-12-26T14:24:24;100991.22;;;4.83;100.00
55301;BME280;58302;51.446;-2.000;2022-12-26T14:27:24;100991.06;;;4.78;100.00
55301;BME280;58302;51.446;-2.000;2022-12-26T14:35:44;100996.06;;;4.61;100.00
55301;BME280;58302;51.446;-2.000;2022-12-26T14:38:32;101006.69;;;4.56;100.00
55301;BME280;58302;51.446;-2.000;2022-12-26T14:41:04;101005.03;;;4.48;100.00
55301;BME280;58302;51.446;-2.000;2022-12-26T14:43:40;101006.47;;;4.44;100.00
55301;BME280;58302;51.446;-2.000;2022-12-26T14:48:58;101023.25;;;4.46;100.00
55301;BME280;58302;51.446;-2.000;2022-12-26T14:51:32;101026.78;;;4.47;100.00
55301;BME280;58302;51.446;-2.000;2022-12-26T14:56:48;101020.16;;;4.36;100.00
55301;BME280;58302;51.446;-2.000;2022-12-26T15:01:48;101026.81;;;4.20;100.00
55301;BME280;58302;51.446;-2.000;2022-12-26T15:04:38;101041.94;;;4.15;100.00
55301;BME280;58302;51.446;-2.000;2022-12-26T15:07:14;101048.97;;;4.09;100.00
55301;BME280;58302;51.446;-2.000;2022-12-26T15:12:38;101059.94;;;4.14;100.00
55301;BME280;58302;51.446;-2.000;2022-12-26T15:15:36;101066.56;;;4.25;100.00
55301;BME280;58302;51.446;-2.000;2022-12-26T15:21:29;101077.09;;;4.40;100.00
55301;BME280;58302;51.446;-2.000;2022-12-26T15:30:02;101087.84;;;4.46;100.00
55301;BME280;58302;51.446;-2.000;2022-12-26T15:35:25;101090.97;;;4.37;100.00
55301;BME280;58302;51.446;-2.000;2022-12-26T15:38:08;101073.81;;;4.18;100.00
55301;BME280;58302;51.446;-2.000;2022-12-26T15:40:49;101078.34;;;3.97;100.00
55301;BME280;58302;51.446;-2.000;2022-12-26T15:46:43;101074.59;;;3.52;100.00
55301;BME280;58302;51.446;-2.000;2022-12-26T15:57:12;101083.28;;;3.00;100.00
55301;BME280;58302;51.446;-2.000;2022-12-26T16:00:04;101089.84;;;2.90;100.00
55301;BME280;58302;51.446;-2.000;2022-12-26T16:10:44;101116.59;;;2.71;100.00
55301;BME280;58302;51.446;-2.000;2022-12-26T16:15:49;101113.66;;;2.66;100.00
55301;BME280;58302;51.446;-2.000;2022-12-26T16:18:19;101110.16;;;2.65;100.00
55301;BME280;58302;51.446;-2.000;2022-12-26T16:20:47;101108.44;;;2.57;100.00
55301;BME280;58302;51.446;-2.000;2022-12-26T16:23:36;101112.59;;;2.60;100.00
55301;BME280;58302;51.446;-2.000;2022-12-26T16:26:02;101111.94;;;2.58;100.00